Time;durP1;ratioP1;P1;durP2;ratioP2;P2;SDS_P1;SDS_P2;PMS_P1;PMS_P2;Temp;Humidity;BMP_temperature;BMP_pressure;BME280_temperature;BME280_humidity;BME280_pressure;Samples;Min_cycle;Max_cycle;Signal;HPM_P1;HPM_P2
2023/05/25 04:01:46;;;;;;;13.33;4.20;;;7.40;97.30;;;;;;5507845;22;20546;-85
2023/05/25 04:04:11;;;;;;;1.90;1.80;;;7.40;97.30;;;;;;4979895;28;20487;-83
2023/05/25 04:06:37;;;;;;;3.30;2.23;;;7.40;97.30;;;;;;4976932;28;20453;-82
2023/05/25 04:09:03;;;;;;;1.97;1.87;;;7.40;97.30;;;;;;4969986;28;20184;-82
2023/05/25 04:11:29;;;;;;;3.30;3.10;;;7.40;97.30;;;;;;4971331;28;20528;-84
2023/05/25 04:13:55;;;;;;;2.63;2.43;;;7.40;97.30;;;;;;4967388;28;20561;-83
2023/05/25 04:16:20;;;;;;;4.30;2.70;;;7.40;97.30;;;;;;5007210;23;20182;-66
2023/05/25 04:18:46;;;;;;;38.40;4.70;;;7.40;97.30;;;;;;4988148;28;20209;-66
2023/05/25 04:21:11;;;;;;;3.60;3.27;;;7.40;97.30;;;;;;4998523;28;20252;-66
2023/05/25 04:23:37;;;;;;;3.57;2.90;;;7.50;97.30;;;;;;4956883;28;20669;-67
2023/05/25 04:26:04;;;;;;;8.00;3.20;;;7.50;97.30;;;;;;4984977;28;20660;-67
2023/05/25 04:28:31;;;;;;;5.97;2.07;;;7.50;97.30;;;;;;4967536;28;21000;-67
2023/05/25 04:30:58;;;;;;;1.87;1.77;;;7.60;97.30;;;;;;4961759;28;20478;-63
2023/05/25 04:33:28;;;;;;;2.67;2.13;;;7.70;97.30;;;;;;4960345;28;20489;-67
2023/05/25 04:35:59;;;;;;;2.33;2.13;;;7.70;97.30;;;;;;4981425;28;20850;-67
2023/05/25 04:38:25;;;;;;;3.83;3.40;;;7.70;97.30;;;;;;4960372;28;20426;-66
2023/05/25 04:40:56;;;;;;;6.60;2.43;;;7.70;97.30;;;;;;4978661;28;20812;-66
2023/05/25 04:43:24;;;;;;;2.57;2.37;;;7.80;97.30;;;;;;4983513;28;20666;-66
2023/05/25 04:45:50;;;;;;;3.70;3.47;;;7.80;97.30;;;;;;4986920;28;20458;-66
2023/05/25 04:48:16;;;;;;;4.63;3.73;;;7.90;97.30;;;;;;4969107;28;20928;-63
2023/05/25 04:50:42;;;;;;;3.57;2.80;;;7.90;97.30;;;;;;4969658;28;20932;-64
2023/05/25 04:53:08;;;;;;;8.47;3.90;;;7.90;97.30;;;;;;4965152;28;20465;-67
2023/05/25 04:55:34;;;;;;;4.43;3.40;;;8.00;97.30;;;;;;4971486;28;20613;-65
2023/05/25 04:58:00;;;;;;;3.70;2.77;;;8.00;97.30;;;;;;4988882;28;20201;-65
2023/05/25 05:00:26;;;;;;;3.50;1.83;;;8.10;97.30;;;;;;4981071;28;20485;-66
2023/05/25 05:02:55;;;;;;;4.93;3.50;;;8.20;97.30;;;;;;4970869;28;20371;-65
2023/05/25 05:05:21;;;;;;;5.20;2.17;;;8.20;97.30;;;;;;4985970;28;20475;-66
2023/05/25 05:07:46;;;;;;;5.57;3.67;;;8.30;97.30;;;;;;4963633;28;20978;-67
2023/05/25 05:10:12;;;;;;;3.20;2.27;;;8.40;97.30;;;;;;4980181;28;20170;-65
2023/05/25 05:12:38;;;;;;;7.10;4.73;;;8.40;97.30;;;;;;4982321;28;20181;-65
2023/05/25 05:15:04;;;;;;;3.60;3.30;;;8.50;97.30;;;;;;4979982;28;20553;-66
2023/05/25 05:17:29;;;;;;;7.93;4.47;;;8.60;97.30;;;;;;4967071;28;20643;-65
2023/05/25 05:19:55;;;;;;;2.70;2.50;;;8.70;97.30;;;;;;4974856;28;20475;-64
2023/05/25 05:22:21;;;;;;;7.60;3.17;;;8.80;97.30;;;;;;4965195;28;20294;-66
2023/05/25 05:24:46;;;;;;;9.57;4.10;;;8.80;97.30;;;;;;4960190;28;20210;-65
2023/05/25 05:27:14;;;;;;;14.60;3.80;;;8.90;97.30;;;;;;4961813;28;20659;-66
2023/05/25 05:29:40;;;;;;;3.90;3.70;;;9.00;97.30;;;;;;4986626;28;20185;-65
2023/05/25 05:32:06;;;;;;;9.00;4.67;;;9.10;97.30;;;;;;4980930;28;20430;-66
2023/05/25 05:34:32;;;;;;;8.03;5.47;;;9.20;97.30;;;;;;4962282;28;20185;-66
2023/05/25 05:36:58;;;;;;;4.77;3.20;;;9.30;97.30;;;;;;4980871;28;20190;-66
2023/05/25 05:39:25;;;;;;;6.83;4.53;;;9.40;97.30;;;;;;4979996;28;20217;-65
2023/05/25 05:41:50;;;;;;;4.83;3.57;;;9.50;97.30;;;;;;4963137;28;20442;-65
2023/05/25 05:44:16;;;;;;;5.43;3.30;;;9.60;97.30;;;;;;4981045;28;20417;-65
2023/05/25 05:46:42;;;;;;;7.27;3.83;;;9.70;97.30;;;;;;4983779;28;20600;-66
2023/05/25 05:49:07;;;;;;;8.93;5.70;;;9.80;97.30;;;;;;4958013;28;20188;-65
2023/05/25 05:51:33;;;;;;;19.03;5.63;;;9.90;97.30;;;;;;4957013;28;20225;-65
2023/05/25 05:53:58;;;;;;;26.73;5.70;;;10.00;97.30;;;;;;4980501;28;20577;-66
2023/05/25 05:56:25;;;;;;;9.80;6.53;;;10.10;97.30;;;;;;4962414;28;20191;-66
2023/05/25 05:58:52;;;;;;;11.97;5.47;;;10.10;97.30;;;;;;4977530;28;20194;-65
2023/05/25 06:01:17;;;;;;;7.57;6.87;;;10.20;97.30;;;;;;4975090;28;20805;-66
2023/05/25 06:03:44;;;;;;;7.90;6.20;;;10.20;97.30;;;;;;4970422;28;20428;-66
2023/05/25 06:06:10;;;;;;;14.67;4.90;;;10.30;97.30;;;;;;4962876;28;20719;-66
2023/05/25 06:08:36;;;;;;;14.77;7.03;;;10.30;97.30;;;;;;4990576;28;20731;-66
2023/05/25 06:11:01;;;;;;;14.97;9.97;;;10.40;97.30;;;;;;4983338;28;20201;-66
2023/05/25 06:13:27;;;;;;;9.27;8.60;;;10.50;97.30;;;;;;4987943;28;20810;-65
2023/05/25 06:15:52;;;;;;;26.23;6.77;;;10.50;97.30;;;;;;4969016;28;20189;-67
2023/05/25 06:18:18;;;;;;;22.03;7.70;;;10.60;97.30;;;;;;4990526;28;20697;-67
2023/05/25 06:20:43;;;;;;;13.57;7.47;;;10.70;97.30;;;;;;4978725;28;20269;-67
2023/05/25 06:23:11;;;;;;;15.23;5.73;;;10.70;97.30;;;;;;4991906;28;20236;-67
2023/05/25 06:25:37;;;;;;;12.43;8.97;;;10.80;97.30;;;;;;4965869;28;20265;-66
2023/05/25 06:28:02;;;;;;;14.30;5.80;;;10.80;97.30;;;;;;4985415;28;20418;-66
2023/05/25 06:30:28;;;;;;;14.03;6.60;;;10.90;97.30;;;;;;4961114;28;20230;-66
2023/05/25 06:32:53;;;;;;;6.83;5.87;;;11.00;97.30;;;;;;4965677;28;20650;-66
2023/05/25 06:35:19;;;;;;;18.67;8.93;;;11.00;97.30;;;;;;4972955;28;20181;-66
2023/05/25 06:37:48;;;;;;;10.30;5.43;;;11.10;97.30;;;;;;4965259;28;20281;-66
2023/05/25 06:40:15;;;;;;;9.70;4.70;;;11.10;97.30;;;;;;4968490;28;20803;-67
2023/05/25 06:42:41;;;;;;;17.23;9.30;;;11.20;97.30;;;;;;4981606;28;20442;-66
2023/05/25 06:45:07;;;;;;;31.57;7.37;;;11.20;97.30;;;;;;4969556;28;20470;-66
2023/05/25 06:47:33;;;;;;;8.83;7.00;;;11.30;97.30;;;;;;4964908;28;20471;-66
2023/05/25 06:49:59;;;;;;;11.90;7.00;;;11.30;97.30;;;;;;4971015;28;20429;-66
2023/05/25 06:52:28;;;;;;;15.33;8.47;;;11.40;97.30;;;;;;4966571;28;20201;-66
2023/05/25 06:54:54;;;;;;;8.93;5.23;;;11.50;97.30;;;;;;4984216;28;20417;-66
2023/05/25 06:57:20;;;;;;;11.73;6.70;;;11.60;97.30;;;;;;4966963;28;20430;-66
2023/05/25 06:59:46;;;;;;;16.97;6.90;;;11.70;97.30;;;;;;4985939;28;20417;-67
2023/05/25 07:02:11;;;;;;;9.23;5.47;;;11.80;97.30;;;;;;4991026;28;20520;-67
2023/05/25 07:04:37;;;;;;;14.70;7.17;;;11.90;97.30;;;;;;4970003;28;20261;-67
2023/05/25 07:07:03;;;;;;;9.50;7.90;;;12.00;97.30;;;;;;4958016;28;20271;-66
2023/05/25 07:09:28;;;;;;;14.13;6.20;;;12.20;97.30;;;;;;4981248;28;20665;-66
2023/05/25 07:11:54;;;;;;;9.43;4.83;;;12.30;97.30;;;;;;4970124;28;20197;-66
2023/05/25 07:14:19;;;;;;;8.20;5.63;;;12.40;97.30;;;;;;4990218;28;20249;-67
2023/05/25 07:16:45;;;;;;;10.67;4.93;;;12.60;97.30;;;;;;4986398;28;20225;-67
2023/05/25 07:19:10;;;;;;;14.23;6.33;;;12.60;97.30;;;;;;4967532;28;20561;-67
2023/05/25 07:21:36;;;;;;;12.10;7.57;;;12.60;97.30;;;;;;4990784;28;20234;-66
2023/05/25 07:24:03;;;;;;;5.40;5.10;;;12.60;97.30;;;;;;4974262;28;20265;-68
2023/05/25 07:26:30;;;;;;;10.77;9.07;;;12.60;97.30;;;;;;4982001;28;20199;-67
2023/05/25 07:28:56;;;;;;;13.67;4.60;;;12.70;97.30;;;;;;4982258;28;20540;-67
2023/05/25 07:31:22;;;;;;;7.83;4.63;;;12.70;97.30;;;;;;4990241;28;20543;-67
2023/05/25 07:33:47;;;;;;;11.73;7.43;;;12.70;97.30;;;;;;4978482;28;20181;-67
2023/05/25 07:36:13;;;;;;;15.93;5.60;;;12.90;97.30;;;;;;4990920;28;20182;-68
2023/05/25 07:38:38;;;;;;;11.03;4.87;;;13.00;97.30;;;;;;4972483;28;20665;-67
2023/05/25 07:41:04;;;;;;;4.53;4.23;;;13.10;97.30;;;;;;4982423;28;20253;-66
2023/05/25 07:43:30;;;;;;;14.97;6.83;;;13.20;97.30;;;;;;4962617;28;20696;-67
2023/05/25 07:45:56;;;;;;;13.43;6.67;;;13.30;97.30;;;;;;4966541;28;20190;-66
2023/05/25 07:48:21;;;;;;;12.97;6.40;;;13.40;97.30;;;;;;4962230;28;20438;-67
2023/05/25 07:50:47;;;;;;;12.43;4.80;;;13.50;97.30;;;;;;4969888;28;20205;-66
2023/05/25 07:53:12;;;;;;;33.47;5.50;;;13.70;97.30;;;;;;4980965;28;20178;-66
2023/05/25 07:55:38;;;;;;;7.53;6.50;;;13.80;97.30;;;;;;4983916;28;20195;-67
2023/05/25 07:58:06;;;;;;;10.83;4.17;;;14.00;97.30;;;;;;4956476;28;20187;-67
2023/05/25 08:00:32;;;;;;;13.30;4.80;;;14.10;97.30;;;;;;4990147;28;20634;-68
2023/05/25 08:02:57;;;;;;;10.10;7.30;;;14.20;97.30;;;;;;4988415;28;21012;-68
2023/05/25 08:05:23;;;;;;;6.90;4.47;;;14.30;97.30;;;;;;4959849;28;20209;-67
2023/05/25 08:07:48;;;;;;;10.43;4.60;;;14.40;97.30;;;;;;4984219;28;20235;-66
2023/05/25 08:10:14;;;;;;;10.13;5.67;;;14.50;97.30;;;;;;4979616;28;20469;-70
2023/05/25 08:12:40;;;;;;;7.17;4.20;;;14.50;97.30;;;;;;4973719;28;20192;-68
2023/05/25 08:15:06;;;;;;;7.37;4.10;;;14.50;97.30;;;;;;4972613;28;20429;-68
2023/05/25 08:17:32;;;;;;;4.70;2.93;;;14.60;97.30;;;;;;4965020;28;20227;-67
2023/05/25 08:19:57;;;;;;;7.87;3.67;;;14.60;97.30;;;;;;4981649;28;20182;-67
2023/05/25 08:22:23;;;;;;;59.53;6.40;;;14.60;97.30;;;;;;4980931;28;20213;-68
2023/05/25 08:24:48;;;;;;;6.70;4.93;;;14.70;97.30;;;;;;4972415;28;20536;-68
2023/05/25 08:27:14;;;;;;;3.93;3.57;;;14.70;97.30;;;;;;4984319;28;20178;-68
2023/05/25 08:29:40;;;;;;;6.70;6.07;;;14.80;97.30;;;;;;4986827;28;20638;-68
2023/05/25 08:32:07;;;;;;;7.00;3.50;;;14.70;97.30;;;;;;4976484;28;20526;-67
2023/05/25 08:34:33;;;;;;;4.53;4.23;;;14.60;97.30;;;;;;4989668;28;20264;-68
2023/05/25 08:36:58;;;;;;;10.63;4.10;;;14.60;97.30;;;;;;4988450;28;20501;-68
2023/05/25 08:39:24;;;;;;;5.10;3.57;;;14.60;97.30;;;;;;4988333;28;20182;-68
2023/05/25 08:41:52;;;;;;;9.37;4.93;;;14.70;97.30;;;;;;4981161;28;20740;-67
2023/05/25 08:44:18;;;;;;;12.03;7.43;;;14.80;97.30;;;;;;4959297;28;20566;-67
2023/05/25 08:46:46;;;;;;;16.07;5.03;;;14.80;97.30;;;;;;4965669;28;20926;-67
2023/05/25 08:49:14;;;;;;;7.33;3.57;;;14.80;97.30;;;;;;4960210;28;20659;-66
2023/05/25 08:51:48;;;;;;;6.50;4.70;;;15.00;97.30;;;;;;4984695;28;20428;-68
2023/05/25 08:54:36;;;;;;;5.70;4.63;;;15.20;97.30;;;;;;4982238;28;21007;-66
2023/05/25 08:57:24;;;;;;;7.23;3.93;;;15.20;97.30;;;;;;4964982;28;20418;-68
2023/05/25 09:00:10;;;;;;;5.30;3.63;;;15.20;97.30;;;;;;4968864;28;20936;-67
2023/05/25 09:02:54;;;;;;;5.83;4.80;;;15.10;97.30;;;;;;4981735;28;20421;-67
2023/05/25 09:05:20;;;;;;;5.30;3.93;;;15.10;97.30;;;;;;4983350;28;20456;-67
2023/05/25 09:07:46;;;;;;;3.50;2.53;;;15.10;97.30;;;;;;4970274;28;20429;-67
2023/05/25 09:10:13;;;;;;;8.20;3.80;;;15.10;97.30;;;;;;4977099;28;20417;-67
2023/05/25 09:12:41;;;;;;;7.00;3.23;;;15.20;97.30;;;;;;4970693;28;20421;-67
2023/05/25 09:15:09;;;;;;;6.10;3.03;;;15.30;97.30;;;;;;4967148;28;20734;-68
2023/05/25 09:17:34;;;;;;;3.43;3.13;;;15.40;97.30;;;;;;4960299;28;20461;-67
2023/05/25 09:20:00;;;;;;;6.40;4.70;;;15.40;97.10;;;;;;4970369;28;20413;-67
2023/05/25 09:22:25;;;;;;;8.07;3.67;;;15.50;96.70;;;;;;4973774;28;20205;-67
2023/05/25 09:24:52;;;;;;;13.40;3.43;;;15.70;96.40;;;;;;4955306;28;20318;-67
2023/05/25 09:27:22;;;;;;;12.57;4.10;;;15.90;94.40;;;;;;4962682;28;20211;-67
2023/05/25 09:29:48;;;;;;;3.50;2.50;;;16.00;93.30;;;;;;4969759;28;20421;-67
2023/05/25 09:32:15;;;;;;;9.20;3.77;;;16.00;93.10;;;;;;4968592;28;20479;-68
2023/05/25 09:34:42;;;;;;;1.80;1.70;;;16.00;92.60;;;;;;4962216;28;20537;-69
2023/05/25 09:37:12;;;;;;;8.33;2.30;;;16.10;93.30;;;;;;4984319;28;20480;-68
2023/05/25 09:39:40;;;;;;;2.47;2.13;;;16.30;93.00;;;;;;4970709;28;20433;-68
2023/05/25 09:42:06;;;;;;;3.83;3.20;;;16.30;91.10;;;;;;4974891;28;21262;-68
2023/05/25 09:44:31;;;;;;;7.40;4.73;;;16.30;91.10;;;;;;4973175;28;20516;-67
2023/05/25 09:46:57;;;;;;;4.03;2.30;;;16.30;91.50;;;;;;4968122;28;20214;-68
2023/05/25 09:49:22;;;;;;;5.33;2.60;;;16.30;92.60;;;;;;4960414;28;20173;-67
2023/05/25 09:51:48;;;;;;;5.13;2.53;;;16.30;93.20;;;;;;4981158;28;20280;-68
2023/05/25 09:54:14;;;;;;;3.37;2.80;;;16.50;93.00;;;;;;4981175;28;20555;-68
2023/05/25 09:56:40;;;;;;;7.57;3.47;;;16.70;93.50;;;;;;4982347;28;20583;-66
2023/05/25 09:59:06;;;;;;;23.23;4.10;;;16.90;92.60;;;;;;4973462;28;20421;-66
2023/05/25 10:01:32;;;;;;;5.13;3.30;;;16.90;92.00;;;;;;4966186;28;20647;-67
2023/05/25 10:04:00;;;;;;;4.03;2.93;;;17.00;91.60;;;;;;4976697;28;20201;-67
2023/05/25 10:06:26;;;;;;;8.37;5.43;;;17.20;91.50;;;;;;4973788;28;20461;-66
2023/05/25 10:08:55;;;;;;;13.33;1.80;;;17.30;90.00;;;;;;4951181;28;20517;-66
2023/05/25 10:11:25;;;;;;;3.57;2.53;;;17.40;89.60;;;;;;4967001;28;20574;-68
2023/05/25 10:13:52;;;;;;;27.93;3.77;;;17.50;88.50;;;;;;4978061;28;20420;-67
2023/05/25 10:16:31;;;;;;;4.00;2.60;;;17.50;89.30;;;;;;4970062;28;20440;-66
2023/05/25 10:19:07;;;;;;;4.70;3.43;;;17.70;89.60;;;;;;5032127;23;20493;-65
2023/05/25 10:21:33;;;;;;;7.40;2.13;;;17.80;87.50;;;;;;5003215;28;20460;-64
2023/05/25 10:24:20;;;;;;;4.40;2.10;;;17.70;87.20;;;;;;5014048;28;20439;-65
2023/05/25 10:26:51;;;;;;;9.33;3.23;;;17.70;87.40;;;;;;5007957;28;20549;-65
2023/05/25 10:29:17;;;;;;;5.00;3.50;;;17.70;87.00;;;;;;4998611;28;20446;-65
2023/05/25 10:31:44;;;;;;;3.60;2.93;;;17.80;87.60;;;;;;5020654;28;20439;-65
2023/05/25 10:34:10;;;;;;;3.50;1.80;;;17.80;87.90;;;;;;5021500;28;20419;-64
2023/05/25 10:36:36;;;;;;;6.23;2.87;;;17.80;87.30;;;;;;4990228;28;20537;-66
2023/05/25 10:39:05;;;;;;;4.03;2.77;;;17.70;87.10;;;;;;5008517;28;20254;-64
2023/05/25 10:41:31;;;;;;;11.27;3.93;;;17.60;86.70;;;;;;4998964;28;21010;-64
2023/05/25 10:43:57;;;;;;;3.73;2.30;;;17.50;86.90;;;;;;5016462;28;20427;-63
2023/05/25 10:46:22;;;;;;;3.97;2.43;;;17.50;88.00;;;;;;4990358;28;20232;-65
2023/05/25 10:48:49;;;;;;;4.17;2.33;;;17.60;88.20;;;;;;4991529;28;20655;-65
2023/05/25 10:51:17;;;;;;;3.13;2.50;;;17.60;88.20;;;;;;5014180;28;20201;-65
2023/05/25 10:53:44;;;;;;;4.10;2.60;;;17.70;88.70;;;;;;5002154;28;20952;-64
2023/05/25 10:56:12;;;;;;;7.50;2.83;;;17.70;87.80;;;;;;5008744;28;20427;-65
2023/05/25 10:58:42;;;;;;;3.23;3.10;;;17.80;88.20;;;;;;5018094;28;20422;-64
2023/05/25 11:01:13;;;;;;;13.83;2.47;;;18.00;88.10;;;;;;5011213;28;20436;-65
2023/05/25 11:03:52;;;;;;;5.43;2.27;;;18.40;87.30;;;;;;5005769;28;20482;-65
2023/05/25 11:06:44;;;;;;;5.27;3.13;;;18.40;87.30;;;;;;5012525;28;20451;-65
2023/05/25 11:09:24;;;;;;;5.30;4.33;;;18.50;87.00;;;;;;4981973;28;20642;-66
2023/05/25 11:11:51;;;;;;;7.40;3.23;;;18.40;86.20;;;;;;4998643;28;20454;-65
2023/05/25 11:14:28;;;;;;;1.97;1.83;;;18.30;86.70;;;;;;5003984;28;20433;-65
2023/05/25 11:17:09;;;;;;;3.67;3.50;;;18.20;85.50;;;;;;5012353;28;20420;-67
2023/05/25 11:19:47;;;;;;;2.83;2.63;;;18.20;87.20;;;;;;5003902;28;20429;-66
2023/05/25 11:22:19;;;;;;;12.73;3.20;;;18.40;86.60;;;;;;5006105;28;20868;-66
2023/05/25 11:24:46;;;;;;;3.03;2.50;;;18.70;86.30;;;;;;5018852;28;20419;-65
2023/05/25 11:27:12;;;;;;;12.00;3.47;;;18.90;86.30;;;;;;5014166;28;20470;-65
2023/05/25 11:29:38;;;;;;;2.43;2.30;;;18.90;85.50;;;;;;5001534;28;20443;-66
2023/05/25 11:32:10;;;;;;;4.60;3.20;;;18.70;85.20;;;;;;4992543;28;20505;-66
2023/05/25 11:34:35;;;;;;;7.93;3.03;;;18.60;86.00;;;;;;4990193;28;20430;-65
2023/05/25 11:37:02;;;;;;;7.13;2.17;;;18.40;85.30;;;;;;5016538;28;20756;-64
2023/05/25 11:39:29;;;;;;;4.00;3.47;;;18.10;85.10;;;;;;4990890;28;20224;-65
2023/05/25 11:42:00;;;;;;;12.53;3.70;;;18.00;85.70;;;;;;4989039;28;20502;-64
2023/05/25 11:44:35;;;;;;;3.60;1.47;;;18.10;86.50;;;;;;5003313;28;20510;-67
2023/05/25 11:47:03;;;;;;;15.00;3.60;;;18.30;86.10;;;;;;5022095;28;20489;-66
2023/05/25 11:49:29;;;;;;;7.43;2.63;;;18.40;83.50;;;;;;5015226;28;20421;-65
2023/05/25 11:51:58;;;;;;;11.50;2.87;;;18.60;84.50;;;;;;4999242;28;20443;-65
2023/05/25 11:54:27;;;;;;;4.40;2.40;;;18.80;84.60;;;;;;5016862;28;20200;-65
2023/05/25 11:56:57;;;;;;;4.30;3.87;;;18.90;83.70;;;;;;5025843;28;20431;-65
2023/05/25 11:59:24;;;;;;;7.30;2.80;;;19.00;84.30;;;;;;5002744;28;20439;-67
2023/05/25 12:02:02;;;;;;;8.40;4.27;;;19.00;86.00;;;;;;4986203;28;20964;-66
2023/05/25 12:04:28;;;;;;;4.37;2.43;;;19.20;86.00;;;;;;4986758;28;20723;-66
2023/05/25 12:07:07;;;;;;;4.23;2.47;;;19.50;83.30;;;;;;4989237;28;20472;-66
2023/05/25 12:09:33;;;;;;;4.73;2.00;;;19.60;83.30;;;;;;5010070;28;20495;-66
2023/05/25 12:12:01;;;;;;;2.20;2.03;;;19.90;84.50;;;;;;5001711;28;20429;-66
2023/05/25 12:14:27;;;;;;;2.37;2.00;;;20.10;83.70;;;;;;4990852;28;20421;-64
2023/05/25 12:16:53;;;;;;;3.97;3.70;;;20.20;83.50;;;;;;4992590;28;20638;-64
2023/05/25 12:19:20;;;;;;;2.57;2.20;;;20.20;82.60;;;;;;5007160;28;20327;-64
2023/05/25 12:21:46;;;;;;;3.77;2.63;;;20.10;81.50;;;;;;5011328;28;20440;-64
2023/05/25 12:24:12;;;;;;;4.90;2.47;;;20.00;80.40;;;;;;4993946;28;20421;-64
2023/05/25 12:26:57;;;;;;;11.73;3.20;;;19.80;81.70;;;;;;4991850;28;20482;-64
2023/05/25 12:29:24;;;;;;;7.73;3.20;;;19.80;82.40;;;;;;4989976;28;20670;-65
2023/05/25 12:31:50;;;;;;;4.97;3.37;;;20.00;81.90;;;;;;4985611;28;20455;-65
2023/05/25 12:34:18;;;;;;;2.57;2.30;;;20.20;81.50;;;;;;5005263;28;20422;-65
2023/05/25 12:36:55;;;;;;;2.77;2.57;;;20.30;81.30;;;;;;5002813;28;20193;-65
2023/05/25 12:39:29;;;;;;;4.53;3.13;;;20.40;81.70;;;;;;4991638;28;20465;-65
2023/05/25 12:41:59;;;;;;;2.30;2.10;;;20.60;81.70;;;;;;5002368;28;20446;-66
2023/05/25 12:44:31;;;;;;;5.57;2.33;;;20.70;81.10;;;;;;5017679;28;20432;-66
2023/05/25 12:47:09;;;;;;;2.67;2.50;;;20.80;81.40;;;;;;4990380;28;20999;-65
2023/05/25 12:49:35;;;;;;;2.50;2.30;;;20.80;80.10;;;;;;5012754;28;20424;-64
2023/05/25 12:52:03;;;;;;;2.47;2.23;;;20.90;82.10;;;;;;4993023;28;20448;-65
2023/05/25 12:54:41;;;;;;;3.20;2.30;;;21.10;80.10;;;;;;5016547;28;20216;-64
2023/05/25 12:57:07;;;;;;;6.17;2.93;;;21.20;79.60;;;;;;4990341;28;20439;-64
2023/05/25 12:59:35;;;;;;;3.67;2.63;;;21.30;81.60;;;;;;4990555;28;20424;-64
2023/05/25 13:02:01;;;;;;;4.27;3.17;;;21.40;79.40;;;;;;5014917;28;20444;-64
2023/05/25 13:04:27;;;;;;;4.30;2.57;;;21.30;79.40;;;;;;5000431;28;20430;-66
2023/05/25 13:06:54;;;;;;;5.13;2.80;;;21.30;78.70;;;;;;4995095;28;20560;-64
2023/05/25 13:09:23;;;;;;;5.60;2.17;;;21.30;78.90;;;;;;5006551;28;20413;-64
2023/05/25 13:11:49;;;;;;;6.13;3.10;;;21.30;77.70;;;;;;4986590;28;20456;-64
2023/05/25 13:14:15;;;;;;;4.33;3.70;;;21.30;78.10;;;;;;5005304;28;20915;-65
2023/05/25 13:16:40;;;;;;;7.03;3.17;;;21.30;78.50;;;;;;4990402;28;20184;-65
2023/05/25 13:19:06;;;;;;;11.27;2.93;;;21.30;78.10;;;;;;4977372;28;20233;-65
2023/05/25 13:21:31;;;;;;;3.73;2.00;;;21.20;78.90;;;;;;4985489;28;20223;-65
2023/05/25 13:23:57;;;;;;;3.00;1.93;;;21.00;79.00;;;;;;4978502;28;20185;-64
2023/05/25 13:26:24;;;;;;;2.50;1.57;;;21.00;80.00;;;;;;4970200;28;20213;-65
2023/05/25 13:28:50;;;;;;;16.83;1.70;;;21.10;79.20;;;;;;4977028;28;20192;-66
2023/05/25 13:31:15;;;;;;;4.30;1.93;;;21.40;80.50;;;;;;4966624;28;20472;-65
2023/05/25 13:33:41;;;;;;;1.83;1.73;;;21.70;79.10;;;;;;4980598;28;20213;-66
2023/05/25 13:36:06;;;;;;;4.50;2.70;;;21.90;78.20;;;;;;4983556;28;20317;-66
2023/05/25 13:38:33;;;;;;;3.17;2.13;;;22.00;76.20;;;;;;4982278;28;20201;-65
2023/05/25 13:40:59;;;;;;;2.63;2.17;;;22.10;78.80;;;;;;4970789;28;20292;-65
2023/05/25 13:43:25;;;;;;;5.43;2.70;;;22.40;79.10;;;;;;4998304;28;20421;-65
2023/05/25 13:45:50;;;;;;;3.17;2.23;;;22.60;77.40;;;;;;4967637;28;20985;-65
2023/05/25 13:48:16;;;;;;;9.47;3.23;;;22.70;76.00;;;;;;5001376;28;20424;-65
2023/05/25 13:50:43;;;;;;;3.53;2.87;;;22.70;76.30;;;;;;4990159;28;20833;-66
2023/05/25 13:53:09;;;;;;;4.13;2.40;;;22.70;76.40;;;;;;4974577;28;20190;-66
2023/05/25 13:55:35;;;;;;;7.33;2.13;;;22.70;76.90;;;;;;4981718;28;20913;-66
2023/05/25 13:58:01;;;;;;;2.97;2.23;;;22.70;76.70;;;;;;4978079;28;21007;-66
2023/05/25 14:00:31;;;;;;;7.67;2.87;;;22.50;77.80;;;;;;4972103;28;20256;-65
2023/05/25 14:02:57;;;;;;;5.43;1.73;;;22.30;78.00;;;;;;4975917;28;20420;-65
2023/05/25 14:05:25;;;;;;;2.90;2.17;;;22.00;77.60;;;;;;4978001;28;21218;-66
2023/05/25 14:07:52;;;;;;;3.90;3.70;;;21.50;77.10;;;;;;4987089;28;20186;-65
2023/05/25 14:10:17;;;;;;;14.27;4.57;;;21.40;77.90;;;;;;4973910;28;20483;-66
2023/05/25 14:12:43;;;;;;;3.80;2.73;;;21.50;77.40;;;;;;4986312;28;20417;-65
2023/05/25 14:15:10;;;;;;;2.97;2.40;;;21.50;77.50;;;;;;4978154;28;20185;-65
2023/05/25 14:17:35;;;;;;;2.70;2.37;;;21.50;78.00;;;;;;4974607;28;20538;-67
2023/05/25 14:20:04;;;;;;;3.10;2.13;;;21.70;77.60;;;;;;4993259;28;21054;-66
2023/05/25 14:22:30;;;;;;;2.13;1.97;;;21.80;77.10;;;;;;4988996;28;20188;-66
2023/05/25 14:24:56;;;;;;;2.03;1.90;;;21.90;76.60;;;;;;5009992;28;20459;-67
2023/05/25 14:27:22;;;;;;;2.43;1.90;;;21.50;78.10;;;;;;4987571;28;20499;-65
2023/05/25 14:29:48;;;;;;;5.80;2.83;;;21.10;79.10;;;;;;4987359;28;20243;-67
2023/05/25 14:32:15;;;;;;;11.30;4.20;;;20.80;80.20;;;;;;4992211;28;20455;-65
2023/05/25 14:34:41;;;;;;;4.30;2.37;;;20.60;80.60;;;;;;5009042;28;20657;-66
2023/05/25 14:37:07;;;;;;;5.20;3.37;;;20.50;80.60;;;;;;5016600;28;20466;-66
2023/05/25 14:39:33;;;;;;;4.13;2.00;;;20.40;80.60;;;;;;5006585;28;20455;-66
2023/05/25 14:41:58;;;;;;;3.30;2.37;;;20.50;80.70;;;;;;5005897;28;20203;-66
2023/05/25 14:44:24;;;;;;;5.63;3.13;;;20.80;81.10;;;;;;5012565;28;20199;-66
2023/05/25 14:46:50;;;;;;;9.03;2.73;;;21.20;79.50;;;;;;5012106;28;20254;-67
2023/05/25 14:49:16;;;;;;;2.63;2.00;;;21.50;78.50;;;;;;5001234;28;20593;-66
2023/05/25 14:51:41;;;;;;;10.00;1.87;;;21.90;78.30;;;;;;5016783;28;20200;-68
2023/05/25 14:54:07;;;;;;;2.90;1.70;;;22.20;78.60;;;;;;5010792;28;20422;-65
2023/05/25 14:56:33;;;;;;;4.40;1.63;;;22.40;76.60;;;;;;5024593;28;20259;-65
2023/05/25 14:58:59;;;;;;;1.70;1.60;;;22.40;77.80;;;;;;5015060;28;20428;-65
2023/05/25 15:01:24;;;;;;;4.87;3.33;;;22.50;78.10;;;;;;4998012;28;20208;-66
2023/05/25 15:03:50;;;;;;;5.07;2.77;;;22.50;77.50;;;;;;5011269;28;20229;-66
2023/05/25 15:06:16;;;;;;;2.27;1.90;;;22.40;77.60;;;;;;4992775;28;20615;-65
2023/05/25 15:08:41;;;;;;;10.13;3.23;;;22.00;78.30;;;;;;5008935;28;20204;-66
2023/05/25 15:11:07;;;;;;;3.20;3.00;;;21.40;78.30;;;;;;5016012;28;20200;-65
2023/05/25 15:13:33;;;;;;;3.23;1.97;;;21.10;79.70;;;;;;5022102;28;20671;-65
2023/05/25 15:15:58;;;;;;;2.27;2.00;;;20.90;80.30;;;;;;4993868;28;20485;-66
2023/05/25 15:18:24;;;;;;;7.87;2.80;;;20.80;80.90;;;;;;4982749;28;20580;-66
2023/05/25 15:20:50;;;;;;;3.13;2.33;;;20.60;81.50;;;;;;4972964;28;20677;-66
2023/05/25 15:23:15;;;;;;;7.40;2.93;;;20.60;82.20;;;;;;4978328;28;20209;-63
2023/05/25 15:25:41;;;;;;;1.83;1.70;;;20.80;80.60;;;;;;4969685;28;20284;-64
2023/05/25 15:28:06;;;;;;;2.33;1.97;;;21.00;78.90;;;;;;4970692;28;20188;-64
2023/05/25 15:30:33;;;;;;;4.27;3.20;;;21.30;80.40;;;;;;4972875;28;20225;-64
2023/05/25 15:32:59;;;;;;;1.83;1.80;;;21.60;79.80;;;;;;4962945;28;20229;-64
2023/05/25 15:35:30;;;;;;;2.73;1.77;;;21.80;78.20;;;;;;4970641;28;20476;-66
2023/05/25 15:38:00;;;;;;;2.17;1.97;;;21.70;77.40;;;;;;4976559;28;20426;-66
2023/05/25 15:40:26;;;;;;;5.03;2.83;;;21.50;79.10;;;;;;4959475;28;20464;-66
2023/05/25 15:42:51;;;;;;;5.53;3.60;;;21.30;78.90;;;;;;4973445;28;20414;-66
2023/05/25 15:45:17;;;;;;;5.70;1.50;;;21.10;80.00;;;;;;4969720;28;20429;-66
2023/05/25 15:47:42;;;;;;;4.47;2.37;;;20.90;80.00;;;;;;4966296;28;20239;-66
2023/05/25 15:50:08;;;;;;;6.67;2.70;;;20.70;80.80;;;;;;4967646;28;20182;-66
2023/05/25 15:52:34;;;;;;;3.30;2.30;;;20.90;82.10;;;;;;4971122;28;20189;-65
2023/05/25 15:55:00;;;;;;;1.93;1.60;;;21.10;82.30;;;;;;4969285;28;20434;-65
2023/05/25 15:57:25;;;;;;;6.63;3.17;;;21.40;80.90;;;;;;4974246;28;20194;-65
2023/05/25 15:59:51;;;;;;;3.30;2.57;;;21.60;79.00;;;;;;4980033;28;20189;-65
2023/05/25 16:02:16;;;;;;;2.40;2.20;;;21.70;78.70;;;;;;4973703;28;20210;-66
2023/05/25 16:04:42;;;;;;;6.27;2.90;;;21.80;78.70;;;;;;4974115;28;20186;-66
2023/05/25 16:07:08;;;;;;;2.40;2.23;;;22.00;78.80;;;;;;4978233;28;20694;-65
2023/05/25 16:09:33;;;;;;;5.60;2.57;;;22.30;78.40;;;;;;4979579;28;20174;-66
2023/05/25 16:11:59;;;;;;;3.70;2.53;;;22.40;77.40;;;;;;4969991;28;20225;-66
2023/05/25 16:14:25;;;;;;;2.40;2.10;;;22.40;77.80;;;;;;4978348;28;20538;-66
2023/05/25 16:16:50;;;;;;;1.80;1.80;;;22.40;77.60;;;;;;4986535;28;20971;-66
2023/05/25 16:21:44;;;;;;;4.30;2.70;;;22.20;77.20;;;;;;4987728;28;20229;-68
2023/05/25 16:24:10;;;;;;;9.40;2.33;;;22.20;76.80;;;;;;4995847;28;20486;-68
2023/05/25 16:26:35;;;;;;;2.90;2.10;;;22.30;78.40;;;;;;4977486;28;20475;-69
2023/05/25 16:29:01;;;;;;;4.80;2.80;;;22.40;76.70;;;;;;4984028;28;20187;-70
2023/05/25 16:31:27;;;;;;;4.43;3.00;;;22.40;75.50;;;;;;4971054;28;20206;-71
2023/05/25 16:33:52;;;;;;;9.43;3.10;;;22.40;75.20;;;;;;4988962;28;20908;-70
2023/05/25 16:36:18;;;;;;;1.90;1.80;;;22.30;76.00;;;;;;4978973;28;20189;-69
2023/05/25 16:38:44;;;;;;;3.07;2.60;;;22.30;76.40;;;;;;4979834;28;20217;-70
2023/05/25 16:41:10;;;;;;;3.20;2.37;;;22.20;76.40;;;;;;4968110;28;20210;-70
2023/05/25 16:43:36;;;;;;;2.23;2.03;;;21.90;77.20;;;;;;4974305;28;20426;-70
2023/05/25 16:46:02;;;;;;;4.13;1.87;;;21.50;78.10;;;;;;4980603;28;20468;-70
2023/05/25 16:48:30;;;;;;;4.17;2.80;;;21.30;78.60;;;;;;4972925;28;20183;-69